AAL1613 KMIA-MKJS
Flight info
| Callsign | AAL1613 |
|---|---|
| Flight time | 1h 8m |
| Altitude | 33000 |
| Route | GWAVA2 URSUS UP406 BILSI DCT NIBEO UL341 ENARI |
| Aircraft | B38M/M-SDE1FGHILORVWXY/HB1 |
Departure
| Time | 2026-05-05 15:55 |
|---|---|
| Airport | Miami International Airport (KMIA) |
Arrival
| Time | 2026-05-05 17:04 |
|---|---|
| Airport | Sangster International Airport (MKJS) |
| Time | Latitude | Longitude | Altitude | Speed | Heading |
|---|---|---|---|---|---|
| 2026-05-05 15:34 | 25.79838 | -80.28124 | 18 ft | 0 kts | 182° |
| 2026-05-05 15:47 | 25.79852 | -80.28124 | 17 ft | 4 kts | 182° |
| 2026-05-05 15:47 | 25.79870 | -80.28123 | 18 ft | 3 kts | 182° |
| 2026-05-05 15:47 | 25.79894 | -80.28116 | 17 ft | 4 kts | 244° |
| 2026-05-05 15:47 | 25.79897 | -80.28091 | 16 ft | 4 kts | 268° |
| 2026-05-05 15:48 | 25.79897 | -80.28079 | 16 ft | 0 kts | 268° |
| 2026-05-05 15:50 | 25.79897 | -80.28080 | 16 ft | 1 kts | 268° |
| 2026-05-05 15:51 | 25.79897 | -80.28098 | 16 ft | 5 kts | 268° |
| 2026-05-05 15:51 | 25.79941 | -80.28138 | 16 ft | 13 kts | 332° |
| 2026-05-05 15:51 | 25.80030 | -80.28172 | 17 ft | 14 kts | 309° |
| 2026-05-05 15:51 | 25.80038 | -80.28277 | 18 ft | 14 kts | 268° |
| 2026-05-05 15:52 | 25.80034 | -80.28396 | 17 ft | 16 kts | 268° |
| 2026-05-05 15:52 | 25.80028 | -80.28526 | 19 ft | 17 kts | 268° |
| 2026-05-05 15:52 | 25.80023 | -80.28668 | 23 ft | 20 kts | 268° |
| 2026-05-05 15:52 | 25.80016 | -80.28851 | 24 ft | 27 kts | 267° |
| 2026-05-05 15:53 | 25.80004 | -80.29075 | 25 ft | 30 kts | 266° |
| 2026-05-05 15:53 | 25.79995 | -80.29308 | 22 ft | 31 kts | 268° |
| 2026-05-05 15:53 | 25.79985 | -80.29563 | 16 ft | 34 kts | 267° |
| 2026-05-05 15:53 | 25.79974 | -80.29818 | 15 ft | 24 kts | 267° |
| 2026-05-05 15:54 | 25.79980 | -80.29975 | 15 ft | 18 kts | 283° |
| 2026-05-05 15:54 | 25.80014 | -80.30104 | 18 ft | 13 kts | 304° |
| 2026-05-05 15:54 | 25.80074 | -80.30104 | 17 ft | 6 kts | 66° |
| 2026-05-05 15:54 | 25.80078 | -80.30025 | 15 ft | 18 kts | 89° |
| 2026-05-05 15:55 | 25.80094 | -80.29578 | 17 ft | 98 kts | 87° |
| 2026-05-05 15:55 | 25.80138 | -80.28557 | 25 ft | 164 kts | 87° |
| 2026-05-05 15:55 | 25.80213 | -80.27187 | 536 ft | 184 kts | 84° |
| 2026-05-05 15:55 | 25.80291 | -80.25800 | 1489 ft | 180 kts | 92° |
| 2026-05-05 15:56 | 25.79838 | -80.24407 | 1937 ft | 213 kts | 128° |
| 2026-05-05 15:56 | 25.78582 | -80.23350 | 2492 ft | 239 kts | 148° |
| 2026-05-05 15:56 | 25.77113 | -80.22358 | 3314 ft | 252 kts | 146° |
| 2026-05-05 15:56 | 25.75693 | -80.21146 | 4191 ft | 265 kts | 139° |
| 2026-05-05 15:57 | 25.74209 | -80.19847 | 5018 ft | 276 kts | 154° |
| 2026-05-05 15:57 | 25.72410 | -80.19301 | 6113 ft | 273 kts | 178° |
| 2026-05-05 15:57 | 25.70488 | -80.19188 | 7021 ft | 280 kts | 179° |
| 2026-05-05 15:57 | 25.68549 | -80.18860 | 7945 ft | 287 kts | 162° |
| 2026-05-05 15:58 | 25.66740 | -80.17862 | 8867 ft | 294 kts | 156° |
| 2026-05-05 15:58 | 25.64884 | -80.16850 | 9739 ft | 300 kts | 157° |
| 2026-05-05 15:58 | 25.62985 | -80.15832 | 10485 ft | 310 kts | 158° |
| 2026-05-05 15:58 | 25.60976 | -80.14760 | 10905 ft | 330 kts | 158° |
| 2026-05-05 15:59 | 25.58847 | -80.13628 | 11288 ft | 349 kts | 158° |
| 2026-05-05 15:59 | 25.56601 | -80.12435 | 11759 ft | 364 kts | 158° |
| 2026-05-05 15:59 | 25.54296 | -80.11209 | 12433 ft | 369 kts | 158° |
| 2026-05-05 15:59 | 25.51971 | -80.09973 | 13189 ft | 374 kts | 158° |
| 2026-05-05 16:00 | 25.50414 | -80.09145 | 13643 ft | 377 kts | 158° |
| 2026-05-05 16:00 | 25.48032 | -80.07879 | 14293 ft | 381 kts | 158° |
| 2026-05-05 16:00 | 25.45623 | -80.06598 | 14871 ft | 387 kts | 158° |
| 2026-05-05 16:00 | 25.43182 | -80.05302 | 15456 ft | 391 kts | 158° |
| 2026-05-05 16:01 | 25.39900 | -80.03559 | 16198 ft | 398 kts | 158° |
| 2026-05-05 16:01 | 25.37387 | -80.02226 | 16757 ft | 403 kts | 158° |
| 2026-05-05 16:01 | 25.34839 | -80.00874 | 17289 ft | 408 kts | 158° |
| 2026-05-05 16:01 | 25.33102 | -79.99953 | 17646 ft | 411 kts | 158° |
| 2026-05-05 16:02 | 25.30511 | -79.98580 | 18180 ft | 416 kts | 158° |
| 2026-05-05 16:02 | 25.27890 | -79.97192 | 18649 ft | 420 kts | 158° |
| 2026-05-05 16:02 | 25.25335 | -79.95573 | 19118 ft | 425 kts | 150° |
| 2026-05-05 16:02 | 25.22832 | -79.93814 | 19590 ft | 429 kts | 150° |
| 2026-05-05 16:03 | 25.20308 | -79.92030 | 20044 ft | 432 kts | 150° |
| 2026-05-05 16:03 | 25.17773 | -79.90234 | 20508 ft | 435 kts | 150° |
| 2026-05-05 16:03 | 25.15218 | -79.88423 | 20962 ft | 438 kts | 150° |
| 2026-05-05 16:03 | 25.12678 | -79.86624 | 21404 ft | 441 kts | 150° |
| 2026-05-05 16:04 | 25.10089 | -79.84791 | 21848 ft | 444 kts | 150° |
| 2026-05-05 16:04 | 25.07469 | -79.82936 | 22278 ft | 447 kts | 150° |
| 2026-05-05 16:04 | 25.04842 | -79.81079 | 22714 ft | 450 kts | 150° |
| 2026-05-05 16:04 | 25.02196 | -79.79208 | 23147 ft | 453 kts | 150° |
| 2026-05-05 16:05 | 24.99538 | -79.77329 | 23585 ft | 456 kts | 150° |
| 2026-05-05 16:05 | 24.96855 | -79.75435 | 23937 ft | 458 kts | 150° |
| 2026-05-05 16:05 | 24.94162 | -79.73533 | 24278 ft | 461 kts | 150° |
| 2026-05-05 16:05 | 24.91449 | -79.71619 | 24621 ft | 464 kts | 150° |
| 2026-05-05 16:06 | 24.88723 | -79.69696 | 24965 ft | 467 kts | 150° |
| 2026-05-05 16:06 | 24.85983 | -79.67763 | 25305 ft | 470 kts | 150° |
| 2026-05-05 16:06 | 24.83222 | -79.65817 | 25647 ft | 472 kts | 150° |
| 2026-05-05 16:06 | 24.80439 | -79.63856 | 25986 ft | 475 kts | 150° |
| 2026-05-05 16:07 | 24.77650 | -79.61892 | 26327 ft | 478 kts | 150° |
| 2026-05-05 16:07 | 24.74842 | -79.59915 | 26657 ft | 481 kts | 150° |
| 2026-05-05 16:07 | 24.72019 | -79.57930 | 26983 ft | 483 kts | 150° |
| 2026-05-05 16:07 | 24.69207 | -79.55953 | 27298 ft | 486 kts | 150° |
| 2026-05-05 16:08 | 24.66348 | -79.53944 | 27625 ft | 489 kts | 150° |
| 2026-05-05 16:08 | 24.63474 | -79.51925 | 27936 ft | 491 kts | 150° |
| 2026-05-05 16:08 | 24.60584 | -79.49896 | 28243 ft | 494 kts | 150° |
| 2026-05-05 16:08 | 24.57679 | -79.47859 | 28549 ft | 496 kts | 150° |
| 2026-05-05 16:09 | 24.54762 | -79.45813 | 28861 ft | 499 kts | 150° |
| 2026-05-05 16:09 | 24.51825 | -79.43756 | 29157 ft | 501 kts | 150° |
| 2026-05-05 16:09 | 24.48873 | -79.41688 | 29446 ft | 504 kts | 150° |
| 2026-05-05 16:09 | 24.45909 | -79.39613 | 29737 ft | 507 kts | 150° |
| 2026-05-05 16:10 | 24.42966 | -79.37554 | 30021 ft | 509 kts | 150° |
| 2026-05-05 16:10 | 24.39984 | -79.35470 | 30277 ft | 511 kts | 150° |
| 2026-05-05 16:10 | 24.36968 | -79.33362 | 30504 ft | 514 kts | 149° |
| 2026-05-05 16:10 | 24.33952 | -79.31256 | 30734 ft | 516 kts | 150° |
| 2026-05-05 16:11 | 24.30917 | -79.29123 | 30968 ft | 519 kts | 149° |
| 2026-05-05 16:11 | 24.21786 | -79.22561 | 31632 ft | 526 kts | 149° |
| 2026-05-05 16:12 | 24.18712 | -79.20359 | 31918 ft | 527 kts | 149° |
| 2026-05-05 16:12 | 24.12560 | -79.15955 | 32552 ft | 528 kts | 149° |
| 2026-05-05 16:13 | 24.03354 | -79.09375 | 33064 ft | 529 kts | 149° |
| 2026-05-05 16:13 | 24.00139 | -79.07469 | 33038 ft | 521 kts | 163° |
| 2026-05-05 16:13 | 23.96673 | -79.06446 | 33066 ft | 514 kts | 174° |
| 2026-05-05 16:14 | 23.82595 | -79.03529 | 33059 ft | 514 kts | 174° |
| 2026-05-05 16:15 | 23.68564 | -79.00752 | 33057 ft | 513 kts | 174° |
| 2026-05-05 16:16 | 23.54532 | -78.97982 | 33058 ft | 512 kts | 174° |
| 2026-05-05 16:17 | 23.44032 | -78.95914 | 33062 ft | 511 kts | 174° |
| 2026-05-05 16:18 | 23.33559 | -78.93854 | 33058 ft | 509 kts | 174° |
| 2026-05-05 16:19 | 23.23099 | -78.91800 | 33061 ft | 508 kts | 174° |
| 2026-05-05 16:19 | 23.12636 | -78.90510 | 33064 ft | 503 kts | 180° |
| 2026-05-05 16:20 | 22.98695 | -78.89324 | 33061 ft | 501 kts | 180° |
| 2026-05-05 16:22 | 22.81395 | -78.87861 | 33062 ft | 499 kts | 180° |
| 2026-05-05 16:23 | 22.67558 | -78.86694 | 33065 ft | 498 kts | 180° |
| 2026-05-05 16:23 | 22.57206 | -78.85822 | 33063 ft | 497 kts | 180° |
| 2026-05-05 16:24 | 22.50303 | -78.85242 | 33064 ft | 496 kts | 180° |
| 2026-05-05 16:25 | 22.40011 | -78.84378 | 33063 ft | 496 kts | 180° |
| 2026-05-05 16:25 | 22.29697 | -78.83513 | 33069 ft | 495 kts | 180° |
| 2026-05-05 16:26 | 22.15972 | -78.82364 | 33063 ft | 494 kts | 180° |
| 2026-05-05 16:27 | 22.09127 | -78.81791 | 33059 ft | 493 kts | 180° |
| 2026-05-05 16:27 | 22.02268 | -78.81219 | 33059 ft | 493 kts | 180° |
| 2026-05-05 16:28 | 21.95422 | -78.80647 | 33055 ft | 493 kts | 180° |
| 2026-05-05 16:28 | 21.88585 | -78.80077 | 33061 ft | 493 kts | 180° |
| 2026-05-05 16:29 | 21.81759 | -78.79509 | 33059 ft | 492 kts | 180° |
| 2026-05-05 16:29 | 21.74976 | -78.78945 | 33063 ft | 492 kts | 180° |
| 2026-05-05 16:30 | 21.68153 | -78.78377 | 33059 ft | 491 kts | 180° |
| 2026-05-05 16:30 | 21.61332 | -78.77811 | 33060 ft | 491 kts | 180° |
| 2026-05-05 16:31 | 21.54520 | -78.77246 | 33062 ft | 490 kts | 180° |
| 2026-05-05 16:31 | 21.47710 | -78.76682 | 33063 ft | 490 kts | 180° |
| 2026-05-05 16:32 | 21.40965 | -78.76125 | 33029 ft | 492 kts | 178° |
| 2026-05-05 16:32 | 21.34061 | -78.75552 | 33048 ft | 503 kts | 178° |
| 2026-05-05 16:33 | 21.27017 | -78.74970 | 33047 ft | 511 kts | 178° |
| 2026-05-05 16:33 | 21.19912 | -78.74383 | 33058 ft | 511 kts | 178° |
| 2026-05-05 16:34 | 21.12816 | -78.73797 | 33060 ft | 511 kts | 178° |
| 2026-05-05 16:34 | 21.05728 | -78.73214 | 33053 ft | 511 kts | 178° |
| 2026-05-05 16:35 | 20.98652 | -78.72629 | 33053 ft | 511 kts | 178° |
| 2026-05-05 16:35 | 20.91559 | -78.72047 | 33052 ft | 510 kts | 178° |
| 2026-05-05 16:36 | 20.84479 | -78.71466 | 33056 ft | 510 kts | 178° |
| 2026-05-05 16:36 | 20.77445 | -78.70888 | 33058 ft | 510 kts | 178° |
| 2026-05-05 16:37 | 20.70367 | -78.70308 | 33053 ft | 510 kts | 178° |
| 2026-05-05 16:37 | 20.63291 | -78.69728 | 33053 ft | 510 kts | 178° |
| 2026-05-05 16:38 | 20.56218 | -78.69149 | 33052 ft | 509 kts | 178° |
| 2026-05-05 16:38 | 20.49297 | -78.68581 | 33079 ft | 487 kts | 180° |
| 2026-05-05 16:39 | 20.42582 | -78.68034 | 33058 ft | 483 kts | 180° |
| 2026-05-05 16:39 | 20.35877 | -78.67487 | 33053 ft | 483 kts | 180° |
| 2026-05-05 16:40 | 20.29219 | -78.66943 | 33054 ft | 482 kts | 180° |
| 2026-05-05 16:40 | 20.22535 | -78.66398 | 33049 ft | 482 kts | 180° |
| 2026-05-05 16:41 | 20.15853 | -78.65854 | 33049 ft | 481 kts | 180° |
| 2026-05-05 16:41 | 20.09178 | -78.65311 | 32986 ft | 479 kts | 180° |
| 2026-05-05 16:42 | 20.05871 | -78.65042 | 32234 ft | 477 kts | 179° |
| 2026-05-05 16:42 | 20.02526 | -78.64769 | 31242 ft | 484 kts | 179° |
| 2026-05-05 16:42 | 19.99175 | -78.64229 | 30237 ft | 495 kts | 167° |
| 2026-05-05 16:42 | 19.95911 | -78.63136 | 29275 ft | 498 kts | 166° |
| 2026-05-05 16:43 | 19.92607 | -78.62075 | 28629 ft | 492 kts | 166° |
| 2026-05-05 16:43 | 19.89354 | -78.61017 | 28083 ft | 486 kts | 165° |
| 2026-05-05 16:43 | 19.86136 | -78.59964 | 27444 ft | 482 kts | 165° |
| 2026-05-05 16:43 | 19.82933 | -78.58916 | 26803 ft | 479 kts | 165° |
| 2026-05-05 16:44 | 19.79752 | -78.57874 | 26176 ft | 477 kts | 165° |
| 2026-05-05 16:44 | 19.76587 | -78.56839 | 25549 ft | 474 kts | 165° |
| 2026-05-05 16:44 | 19.73444 | -78.55811 | 24925 ft | 472 kts | 165° |
| 2026-05-05 16:44 | 19.71364 | -78.55131 | 24515 ft | 471 kts | 164° |
| 2026-05-05 16:45 | 19.67178 | -78.53763 | 23683 ft | 470 kts | 164° |
| 2026-05-05 16:45 | 19.64061 | -78.52745 | 22957 ft | 468 kts | 164° |
| 2026-05-05 16:45 | 19.60956 | -78.51731 | 22320 ft | 465 kts | 164° |
| 2026-05-05 16:45 | 19.57882 | -78.50728 | 21715 ft | 461 kts | 164° |
| 2026-05-05 16:46 | 19.54830 | -78.49732 | 21120 ft | 457 kts | 164° |
| 2026-05-05 16:46 | 19.51799 | -78.48744 | 20511 ft | 454 kts | 164° |
| 2026-05-05 16:46 | 19.48792 | -78.47764 | 19914 ft | 451 kts | 164° |
| 2026-05-05 16:46 | 19.45813 | -78.46793 | 19319 ft | 444 kts | 164° |
| 2026-05-05 16:47 | 19.42899 | -78.45844 | 18748 ft | 433 kts | 164° |
| 2026-05-05 16:47 | 19.40079 | -78.44926 | 18163 ft | 424 kts | 164° |
| 2026-05-05 16:47 | 19.37280 | -78.44015 | 17523 ft | 420 kts | 164° |
| 2026-05-05 16:47 | 19.34490 | -78.43106 | 16946 ft | 418 kts | 164° |
| 2026-05-05 16:48 | 19.31721 | -78.42206 | 16404 ft | 416 kts | 164° |
| 2026-05-05 16:48 | 19.28962 | -78.41309 | 15867 ft | 413 kts | 164° |
| 2026-05-05 16:48 | 19.26222 | -78.40418 | 15343 ft | 410 kts | 164° |
| 2026-05-05 16:48 | 19.23491 | -78.39531 | 14821 ft | 408 kts | 164° |
| 2026-05-05 16:49 | 19.20780 | -78.38650 | 14310 ft | 406 kts | 164° |
| 2026-05-05 16:49 | 19.18089 | -78.37776 | 13801 ft | 403 kts | 164° |
| 2026-05-05 16:49 | 19.15410 | -78.36907 | 13239 ft | 401 kts | 164° |
| 2026-05-05 16:49 | 19.12794 | -78.36058 | 12757 ft | 395 kts | 164° |
| 2026-05-05 16:50 | 19.10205 | -78.35218 | 12258 ft | 382 kts | 163° |
| 2026-05-05 16:50 | 19.07684 | -78.34400 | 11799 ft | 377 kts | 163° |
| 2026-05-05 16:50 | 19.05194 | -78.33593 | 11479 ft | 370 kts | 163° |
| 2026-05-05 16:50 | 19.02764 | -78.32806 | 11290 ft | 360 kts | 163° |
| 2026-05-05 16:51 | 19.00399 | -78.32040 | 11114 ft | 350 kts | 163° |
| 2026-05-05 16:51 | 18.98103 | -78.31296 | 10942 ft | 340 kts | 163° |
| 2026-05-05 16:51 | 18.96626 | -78.30818 | 10838 ft | 330 kts | 163° |
| 2026-05-05 16:51 | 18.94474 | -78.30121 | 10698 ft | 316 kts | 163° |
| 2026-05-05 16:52 | 18.91763 | -78.29244 | 10495 ft | 298 kts | 163° |
| 2026-05-05 16:52 | 18.89824 | -78.28616 | 10355 ft | 285 kts | 163° |
| 2026-05-05 16:52 | 18.88558 | -78.28207 | 10267 ft | 278 kts | 163° |
| 2026-05-05 16:52 | 18.86731 | -78.27616 | 10132 ft | 270 kts | 163° |
| 2026-05-05 16:53 | 18.84952 | -78.27041 | 9929 ft | 266 kts | 163° |
| 2026-05-05 16:53 | 18.83168 | -78.26464 | 9617 ft | 271 kts | 163° |
| 2026-05-05 16:53 | 18.81345 | -78.25875 | 9304 ft | 275 kts | 163° |
| 2026-05-05 16:53 | 18.79513 | -78.25283 | 9020 ft | 276 kts | 162° |
| 2026-05-05 16:54 | 18.77697 | -78.24696 | 8732 ft | 276 kts | 162° |
| 2026-05-05 16:54 | 18.75862 | -78.24104 | 8436 ft | 276 kts | 162° |
| 2026-05-05 16:54 | 18.74034 | -78.23513 | 8145 ft | 274 kts | 162° |
| 2026-05-05 16:54 | 18.72218 | -78.22927 | 7851 ft | 272 kts | 162° |
| 2026-05-05 16:55 | 18.70414 | -78.22345 | 7566 ft | 270 kts | 162° |
| 2026-05-05 16:55 | 18.68615 | -78.21764 | 7261 ft | 269 kts | 162° |
| 2026-05-05 16:55 | 18.66832 | -78.21189 | 6990 ft | 267 kts | 162° |
| 2026-05-05 16:55 | 18.65055 | -78.20616 | 6712 ft | 266 kts | 161° |
| 2026-05-05 16:56 | 18.63290 | -78.20047 | 6418 ft | 265 kts | 162° |
| 2026-05-05 16:56 | 18.61533 | -78.19481 | 6120 ft | 263 kts | 162° |
| 2026-05-05 16:56 | 18.59786 | -78.18918 | 5827 ft | 262 kts | 161° |
| 2026-05-05 16:56 | 18.58044 | -78.18356 | 5544 ft | 260 kts | 162° |
| 2026-05-05 16:57 | 18.56315 | -78.17799 | 5308 ft | 257 kts | 162° |
| 2026-05-05 16:57 | 18.54634 | -78.17257 | 5177 ft | 249 kts | 161° |
| 2026-05-05 16:57 | 18.53002 | -78.16732 | 5068 ft | 240 kts | 162° |
| 2026-05-05 16:57 | 18.51476 | -78.16126 | 4970 ft | 230 kts | 154° |
| 2026-05-05 16:58 | 18.50036 | -78.15426 | 4711 ft | 225 kts | 154° |
| 2026-05-05 16:58 | 18.48636 | -78.14754 | 4370 ft | 222 kts | 154° |
| 2026-05-05 16:58 | 18.47234 | -78.14089 | 4018 ft | 220 kts | 154° |
| 2026-05-05 16:58 | 18.45843 | -78.13432 | 3718 ft | 219 kts | 154° |
| 2026-05-05 16:59 | 18.44460 | -78.12783 | 3460 ft | 215 kts | 154° |
| 2026-05-05 16:59 | 18.43264 | -78.11933 | 3262 ft | 204 kts | 129° |
| 2026-05-05 16:59 | 18.42711 | -78.10619 | 3175 ft | 192 kts | 97° |
| 2026-05-05 16:59 | 18.42774 | -78.09243 | 3055 ft | 187 kts | 79° |
| 2026-05-05 17:00 | 18.43163 | -78.07937 | 2959 ft | 189 kts | 63° |
| 2026-05-05 17:00 | 18.43762 | -78.06680 | 2812 ft | 194 kts | 66° |
| 2026-05-05 17:00 | 18.44289 | -78.05375 | 2538 ft | 191 kts | 69° |
| 2026-05-05 17:00 | 18.44813 | -78.04093 | 2276 ft | 191 kts | 66° |
| 2026-05-05 17:01 | 18.45366 | -78.02840 | 2111 ft | 191 kts | 66° |
| 2026-05-05 17:01 | 18.45943 | -78.01532 | 1698 ft | 195 kts | 66° |
| 2026-05-05 17:01 | 18.46454 | -78.00329 | 1588 ft | 167 kts | 66° |
| 2026-05-05 17:01 | 18.46906 | -77.99288 | 1424 ft | 154 kts | 66° |
| 2026-05-05 17:02 | 18.47352 | -77.98264 | 1244 ft | 153 kts | 65° |
| 2026-05-05 17:02 | 18.47787 | -77.97252 | 1025 ft | 151 kts | 65° |
| 2026-05-05 17:02 | 18.48229 | -77.96245 | 779 ft | 151 kts | 64° |
| 2026-05-05 17:02 | 18.48670 | -77.95245 | 655 ft | 151 kts | 64° |
| 2026-05-05 17:03 | 18.49101 | -77.94239 | 461 ft | 148 kts | 64° |
| 2026-05-05 17:03 | 18.49530 | -77.93252 | 241 ft | 149 kts | 63° |
| 2026-05-05 17:03 | 18.49967 | -77.92261 | 50 ft | 149 kts | 63° |
| 2026-05-05 17:03 | 18.50364 | -77.91349 | 15 ft | 122 kts | 65° |
| 2026-05-05 17:04 | 18.50614 | -77.90763 | 15 ft | 52 kts | 65° |
| 2026-05-05 17:04 | 18.50742 | -77.90464 | 13 ft | 39 kts | 66° |
| 2026-05-05 17:04 | 18.50834 | -77.90246 | 14 ft | 22 kts | 79° |
| 2026-05-05 17:04 | 18.50773 | -77.90182 | 13 ft | 12 kts | 191° |
| 2026-05-05 17:05 | 18.50691 | -77.90210 | 13 ft | 13 kts | 199° |
| 2026-05-05 17:05 | 18.50636 | -77.90284 | 14 ft | 14 kts | 245° |
| 2026-05-05 17:05 | 18.50588 | -77.90392 | 13 ft | 20 kts | 245° |
| 2026-05-05 17:05 | 18.50518 | -77.90556 | 13 ft | 28 kts | 246° |
| 2026-05-05 17:06 | 18.50434 | -77.90753 | 14 ft | 30 kts | 245° |
| 2026-05-05 17:06 | 18.50343 | -77.90962 | 13 ft | 32 kts | 246° |
| 2026-05-05 17:06 | 18.50257 | -77.91162 | 13 ft | 30 kts | 245° |
| 2026-05-05 17:06 | 18.50190 | -77.91313 | 13 ft | 19 kts | 237° |
| 2026-05-05 17:07 | 18.50144 | -77.91325 | 13 ft | 10 kts | 166° |
| 2026-05-05 17:07 | 18.50091 | -77.91364 | 14 ft | 12 kts | 248° |
| 2026-05-05 17:07 | 18.50053 | -77.91460 | 14 ft | 15 kts | 247° |
| 2026-05-05 17:07 | 18.50009 | -77.91545 | 13 ft | 12 kts | 227° |
| 2026-05-05 17:08 | 18.49946 | -77.91559 | 13 ft | 3 kts | 176° |
| 2026-05-05 17:08 | 18.49923 | -77.91558 | 12 ft | 3 kts | 176° |
| 2026-05-05 17:08 | 18.49913 | -77.91557 | 12 ft | 1 kts | 176° |
| 2026-05-05 17:08 | 18.49909 | -77.91557 | 21 ft | 1 kts | 176° |